createdAt,value
2019-03-05T00:01:13.200Z,7.10
2019-03-05T00:03:42.380Z,6.90
2019-03-05T00:06:13.384Z,6.90
2019-03-05T00:08:44.723Z,6.90
2019-03-05T00:11:40.680Z,6.90
2019-03-05T00:14:41.809Z,6.90
2019-03-05T00:17:36.475Z,7.00
2019-03-05T00:24:45.649Z,7.20
2019-03-05T00:27:14.884Z,6.90
2019-03-05T00:30:26.129Z,6.90
2019-03-05T00:33:02.699Z,6.90
2019-03-05T00:36:13.335Z,6.90
2019-03-05T00:39:25.030Z,7.00
2019-03-05T00:42:27.427Z,6.90
2019-03-05T00:45:29.164Z,6.80
2019-03-05T00:48:44.228Z,6.80
2019-03-05T00:51:53.240Z,7.30
2019-03-05T00:54:44.525Z,7.00
2019-03-05T00:57:57.141Z,6.80
2019-03-05T01:00:37.488Z,6.90
2019-03-05T01:03:57.020Z,7.00
2019-03-05T01:06:26.596Z,6.80
2019-03-05T01:08:56.465Z,6.90
2019-03-05T01:11:26.029Z,6.80
2019-03-05T01:13:55.724Z,6.80
2019-03-05T01:16:31.563Z,6.80
2019-03-05T01:19:00.718Z,6.80
2019-03-05T01:21:30.005Z,7.00
2019-03-05T01:23:59.195Z,6.90
2019-03-05T01:26:28.404Z,6.80
2019-03-05T01:28:59.789Z,6.70
2019-03-05T01:31:38.380Z,6.80
2019-03-05T01:34:12.060Z,6.90
2019-03-05T01:36:44.452Z,6.70
2019-03-05T01:39:36.783Z,6.90
2019-03-05T01:42:06.976Z,6.80
2019-03-05T01:44:36.243Z,6.70
2019-03-05T01:47:05.769Z,6.80
2019-03-05T01:49:35.039Z,6.80
2019-03-05T01:52:04.308Z,6.80
2019-03-05T01:54:33.474Z,6.70
2019-03-05T01:57:02.707Z,6.80
2019-03-05T01:59:31.904Z,6.80
2019-03-05T02:02:01.109Z,6.70
2019-03-05T02:04:30.373Z,6.70
2019-03-05T02:06:59.463Z,6.70
2019-03-05T02:09:28.599Z,6.70
2019-03-05T02:11:57.864Z,6.80
2019-03-05T02:14:27.061Z,6.80
2019-03-05T02:16:56.261Z,6.70
2019-03-05T02:19:39.836Z,6.80
2019-03-05T02:22:18.130Z,6.80
2019-03-05T02:25:26.542Z,6.90
2019-03-05T02:28:19.928Z,6.90
2019-03-05T02:31:05.332Z,7.10
2019-03-05T02:33:41.909Z,7.10
2019-03-05T02:36:36.976Z,7.10
2019-03-05T02:39:37.018Z,7.10
2019-03-05T02:42:13.884Z,6.90
2019-03-05T02:45:35.080Z,7.00
2019-03-05T02:48:47.038Z,7.00
2019-03-05T02:51:46.927Z,7.30
2019-03-05T02:55:05.340Z,7.50
2019-03-05T02:57:33.389Z,7.30
2019-03-05T03:00:02.589Z,7.30
2019-03-05T03:02:43.597Z,7.30
2019-03-05T03:05:34.899Z,7.30
2019-03-05T03:08:04.095Z,7.60
2019-03-05T03:10:33.282Z,7.40
2019-03-05T03:13:02.468Z,7.40
2019-03-05T03:15:31.666Z,7.50
2019-03-05T03:18:01.617Z,7.40
2019-03-05T03:20:30.830Z,7.70
2019-03-05T03:23:00.148Z,7.70
2019-03-05T03:25:29.408Z,7.60
2019-03-05T03:27:58.523Z,7.60
2019-03-05T03:30:28.673Z,7.60
2019-03-05T03:32:58.024Z,7.60
2019-03-05T03:35:27.165Z,7.50
2019-03-05T03:37:56.349Z,7.50
2019-03-05T03:40:25.753Z,7.50
2019-03-05T03:42:55.320Z,7.70
2019-03-05T03:45:25.643Z,7.60
2019-03-05T03:47:54.846Z,7.60
2019-03-05T03:50:24.251Z,7.60
2019-03-05T03:52:53.477Z,7.60
2019-03-05T03:55:23.035Z,7.50
2019-03-05T03:57:52.400Z,7.60
2019-03-05T04:00:25.495Z,7.50
2019-03-05T04:02:56.052Z,7.50
2019-03-05T04:05:25.376Z,7.50
2019-03-05T04:07:54.666Z,7.40
2019-03-05T04:10:23.884Z,7.40
2019-03-05T04:12:53.137Z,7.40
2019-03-05T04:15:22.523Z,7.30
2019-03-05T04:17:52.094Z,7.40
2019-03-05T04:20:26.758Z,7.40
2019-03-05T04:22:56.059Z,7.40
2019-03-05T04:25:25.231Z,7.30
2019-03-05T04:27:54.420Z,7.30
2019-03-05T04:30:23.536Z,7.40
2019-03-05T04:32:52.783Z,7.50
2019-03-05T04:35:21.972Z,7.60
2019-03-05T04:37:51.179Z,7.50
2019-03-05T04:40:20.425Z,7.50
2019-03-05T04:42:49.663Z,7.50
2019-03-05T04:45:54.557Z,7.70
2019-03-05T04:48:23.657Z,7.60
2019-03-05T04:50:56.439Z,7.60
2019-03-05T04:53:25.636Z,7.60
2019-03-05T04:56:01.972Z,7.60
2019-03-05T04:58:31.157Z,7.50
2019-03-05T05:01:04.173Z,7.60
2019-03-05T05:03:34.369Z,7.40
2019-03-05T05:06:03.539Z,7.40
2019-03-05T05:08:34.236Z,7.40
2019-03-05T05:11:03.698Z,7.50
2019-03-05T05:13:34.026Z,7.40
2019-03-05T05:16:03.520Z,7.30
2019-03-05T05:18:32.886Z,7.40
2019-03-05T05:21:02.543Z,7.40
2019-03-05T05:23:34.637Z,7.30
2019-03-05T05:26:04.209Z,7.50
2019-03-05T05:28:33.475Z,7.30
2019-03-05T05:31:02.624Z,7.50
2019-03-05T05:33:31.737Z,7.60
2019-03-05T05:36:00.833Z,7.70
2019-03-05T05:38:30.372Z,7.70
2019-03-05T05:41:04.623Z,7.80
2019-03-05T05:43:33.830Z,7.60
2019-03-05T05:46:10.055Z,7.50
2019-03-05T05:48:39.384Z,7.50
2019-03-05T05:51:09.136Z,7.60
2019-03-05T05:53:39.623Z,7.60
2019-03-05T05:56:13.516Z,7.50
2019-03-05T05:58:43.021Z,7.30
2019-03-05T06:01:13.117Z,7.40
2019-03-05T06:03:42.571Z,7.40
2019-03-05T06:06:12.133Z,7.40
2019-03-05T06:08:42.136Z,7.30
2019-03-05T06:11:25.480Z,7.30
2019-03-05T06:13:58.801Z,7.20
2019-03-05T06:22:26.742Z,7.50
2019-03-05T06:41:20.954Z,7.50
2019-03-05T06:44:41.090Z,7.30
2019-03-05T06:51:30.113Z,7.60
2019-03-05T06:54:17.767Z,7.60
2019-03-05T07:01:38.509Z,7.40
2019-03-05T07:14:16.743Z,7.70
2019-03-05T08:09:58.510Z,8.80
2019-03-05T08:13:23.978Z,9.20
2019-03-05T08:16:26.803Z,9.10
2019-03-05T08:47:07.575Z,8.40
2019-03-05T08:53:13.581Z,9.00
2019-03-05T09:05:35.390Z,9.70
2019-03-05T09:08:29.487Z,9.70
2019-03-05T09:11:43.563Z,10.00
2019-03-05T09:39:05.805Z,9.90
2019-03-05T09:42:24.700Z,9.70
2019-03-05T09:45:54.288Z,9.70
2019-03-05T09:48:50.453Z,9.70
2019-03-05T09:54:24.888Z,9.40
2019-03-05T09:57:31.954Z,9.40
2019-03-05T10:00:12.353Z,9.30
2019-03-05T10:03:32.767Z,9.50
2019-03-05T10:06:53.004Z,9.30
2019-03-05T10:09:39.354Z,9.10
2019-03-05T10:12:38.476Z,9.20
2019-03-05T10:36:57.658Z,9.20
2019-03-05T10:39:57.606Z,9.20
2019-03-05T10:42:34.650Z,9.30
2019-03-05T10:48:01.777Z,9.50
2019-03-05T10:54:23.589Z,9.70
2019-03-05T10:57:24.947Z,9.70
2019-03-05T11:01:00.483Z,9.60
2019-03-05T11:04:11.829Z,9.50
2019-03-05T11:07:11.037Z,9.50
2019-03-05T11:13:32.358Z,9.50
2019-03-05T11:16:30.783Z,9.30
2019-03-05T11:19:19.331Z,9.40
2019-03-05T11:25:46.629Z,9.80
2019-03-05T11:28:41.573Z,9.80
2019-03-05T11:37:56.353Z,9.60
2019-03-05T11:44:02.521Z,9.60
2019-03-05T11:50:07.338Z,9.40
2019-03-05T11:55:59.776Z,8.80
2019-03-05T12:11:10.984Z,9.10
2019-03-05T12:14:16.678Z,9.20
2019-03-05T12:24:08.717Z,9.00
2019-03-05T12:32:30.729Z,8.10
2019-03-05T12:35:04.658Z,7.70
2019-03-05T12:37:41.929Z,7.20
2019-03-05T12:40:16.755Z,7.00
2019-03-05T12:42:52.739Z,7.00
2019-03-05T12:45:29.227Z,6.90
2019-03-05T12:53:40.731Z,6.80
2019-03-05T12:56:23.536Z,6.80
2019-03-05T12:59:47.724Z,6.80
2019-03-05T13:12:09.038Z,6.70
2019-03-05T13:14:42.765Z,6.60
2019-03-05T13:17:54.851Z,6.60
2019-03-05T13:20:26.521Z,6.50
2019-03-05T13:22:57.840Z,6.40
2019-03-05T13:25:38.252Z,6.30
2019-03-05T13:28:11.363Z,6.30
2019-03-05T13:30:49.166Z,6.30
2019-03-05T13:33:37.977Z,6.40
2019-03-05T13:39:18.073Z,6.50
2019-03-05T13:41:53.891Z,6.60
2019-03-05T13:44:36.659Z,6.50
2019-03-05T13:47:28.131Z,6.70
2019-03-05T13:50:24.166Z,6.70
2019-03-05T13:53:35.859Z,6.90
2019-03-05T13:56:42.333Z,7.10
2019-03-05T13:59:44.038Z,7.30
2019-03-05T14:02:36.321Z,7.50
2019-03-05T14:05:35.271Z,7.60
2019-03-05T14:08:42.361Z,7.60
2019-03-05T14:11:20.825Z,7.70
2019-03-05T14:13:54.142Z,7.70
2019-03-05T14:16:27.641Z,7.80
2019-03-05T14:19:07.632Z,7.80
2019-03-05T14:25:12.546Z,7.70
2019-03-05T14:30:56.394Z,7.70
2019-03-05T14:33:55.401Z,7.70
2019-03-05T14:36:36.262Z,7.70
2019-03-05T14:39:53.414Z,7.70
2019-03-05T14:55:31.298Z,7.60
2019-03-05T14:58:15.003Z,7.70
2019-03-05T15:00:52.844Z,7.80
2019-03-05T15:03:30.010Z,7.70
2019-03-05T15:06:07.206Z,7.70
2019-03-05T15:08:49.510Z,8.00
2019-03-05T15:14:41.236Z,8.90
2019-03-05T15:17:33.430Z,9.50
2019-03-05T15:20:30.825Z,10.10
2019-03-05T15:23:10.514Z,10.20
2019-03-05T15:26:26.981Z,9.80
2019-03-05T15:29:16.141Z,9.50
2019-03-05T15:31:56.837Z,9.20
2019-03-05T15:35:13.393Z,9.10
2019-03-05T15:38:01.977Z,8.80
2019-03-05T15:40:50.170Z,8.50
2019-03-05T15:43:34.913Z,8.70
2019-03-05T15:46:54.939Z,9.50
2019-03-05T15:49:36.151Z,10.60
2019-03-05T15:52:36.607Z,11.10
2019-03-05T15:55:35.423Z,11.60
2019-03-05T16:21:11.780Z,8.40
2019-03-05T16:24:41.442Z,8.30
2019-03-05T16:28:12.026Z,8.20
2019-03-05T16:31:45.324Z,8.10
2019-03-05T16:49:10.108Z,7.80
2019-03-05T16:51:52.545Z,7.80
2019-03-05T16:54:39.469Z,7.80
2019-03-05T16:57:35.895Z,7.70
2019-03-05T17:00:31.147Z,7.60
2019-03-05T17:11:05.413Z,7.50
2019-03-05T17:40:39.436Z,7.30
2019-03-05T17:43:40.018Z,7.20
2019-03-05T17:46:12.952Z,7.10
2019-03-05T17:48:42.193Z,7.10
2019-03-05T17:51:19.039Z,7.10
2019-03-05T17:57:57.706Z,7.00
2019-03-05T18:09:15.308Z,6.80
2019-03-05T18:11:53.432Z,6.90
2019-03-05T18:21:11.152Z,6.80
2019-03-05T18:23:40.578Z,6.70
2019-03-05T18:26:27.638Z,6.60
2019-03-05T18:29:00.997Z,6.70
2019-03-05T18:37:45.942Z,6.50
2019-03-05T18:40:22.973Z,6.50
2019-03-05T18:46:25.358Z,6.60
2019-03-05T18:51:29.840Z,6.50
2019-03-05T18:54:00.940Z,6.40
2019-03-05T18:56:57.447Z,6.50
2019-03-05T19:02:48.932Z,6.40
2019-03-05T19:05:24.246Z,6.30
2019-03-05T19:08:13.072Z,6.30
2019-03-05T19:10:49.921Z,6.40
2019-03-05T19:13:20.838Z,6.30
2019-03-05T19:15:50.659Z,6.30
2019-03-05T19:21:27.753Z,6.20
2019-03-05T19:23:56.996Z,6.10
2019-03-05T19:26:26.372Z,6.10
2019-03-05T19:28:55.885Z,6.10
2019-03-05T19:31:27.296Z,6.10
2019-03-05T19:33:58.424Z,6.10
2019-03-05T19:36:30.055Z,6.10
2019-03-05T19:39:00.120Z,6.10
2019-03-05T19:41:31.118Z,6.10
2019-03-05T19:44:02.592Z,6.10
2019-03-05T19:46:35.413Z,6.10
2019-03-05T19:49:12.831Z,6.10
2019-03-05T19:51:42.812Z,5.90
2019-03-05T19:54:13.160Z,6.00
2019-03-05T19:56:43.489Z,5.90
2019-03-05T19:59:39.912Z,5.90
2019-03-05T20:02:52.456Z,5.90
2019-03-05T20:05:59.082Z,5.90
2019-03-05T20:12:19.137Z,5.90
2019-03-05T20:14:52.864Z,5.90
2019-03-05T20:17:58.459Z,6.00
2019-03-05T20:20:40.173Z,6.00
2019-03-05T20:23:26.459Z,6.00
2019-03-05T20:26:06.809Z,5.90
2019-03-05T20:31:59.828Z,6.00
2019-03-05T20:34:38.573Z,5.90
2019-03-05T20:37:09.629Z,6.00
2019-03-05T20:48:01.127Z,5.80
2019-03-05T20:50:37.779Z,5.80
2019-03-05T21:04:47.906Z,5.90
2019-03-05T21:07:17.357Z,5.80
2019-03-05T21:09:47.802Z,5.80
2019-03-05T21:12:20.763Z,5.80
2019-03-05T21:19:43.113Z,5.80
2019-03-05T21:22:15.643Z,5.80
2019-03-05T21:25:00.827Z,5.70
2019-03-05T21:27:36.750Z,5.70
2019-03-05T21:34:04.132Z,5.70
2019-03-05T21:36:33.410Z,5.80
2019-03-05T21:39:03.034Z,5.70
2019-03-05T21:41:32.814Z,5.70
2019-03-05T21:44:52.670Z,5.60
2019-03-05T21:47:22.208Z,5.60
2019-03-05T21:56:36.953Z,5.50
2019-03-05T21:59:06.203Z,5.50
2019-03-05T22:01:35.641Z,5.60
2019-03-05T22:04:04.918Z,5.50
2019-03-05T22:06:34.269Z,5.50
2019-03-05T22:09:05.384Z,5.50
2019-03-05T22:11:34.861Z,5.50
2019-03-05T22:14:04.191Z,5.50
2019-03-05T22:16:33.433Z,5.40
2019-03-05T22:19:06.023Z,5.40
2019-03-05T22:21:35.263Z,5.40
2019-03-05T22:24:04.800Z,5.40
2019-03-05T22:26:34.009Z,5.40
2019-03-05T22:29:03.255Z,5.40
2019-03-05T22:31:32.607Z,5.40
2019-03-05T22:34:01.822Z,5.40
2019-03-05T22:36:32.209Z,5.40
2019-03-05T22:39:01.571Z,5.30
2019-03-05T22:41:30.846Z,5.30
2019-03-05T22:44:00.058Z,5.30
2019-03-05T22:46:31.012Z,5.30
2019-03-05T22:49:00.662Z,5.30
2019-03-05T22:51:30.296Z,5.30
2019-03-05T22:53:59.669Z,5.30
2019-03-05T22:56:28.892Z,5.30
2019-03-05T22:58:58.129Z,5.20
2019-03-05T23:01:49.517Z,5.20
2019-03-05T23:04:27.308Z,5.20
2019-03-05T23:06:56.560Z,5.20
2019-03-05T23:09:26.706Z,5.20
2019-03-05T23:12:24.468Z,5.20
2019-03-05T23:14:57.359Z,5.20
2019-03-05T23:17:40.914Z,5.20
2019-03-05T23:24:25.118Z,5.10
2019-03-05T23:27:09.304Z,5.10
2019-03-05T23:29:44.176Z,5.10
2019-03-05T23:32:13.908Z,5.20
2019-03-05T23:34:43.184Z,5.20
2019-03-05T23:37:58.745Z,5.30
2019-03-05T23:40:32.708Z,5.20
2019-03-05T23:51:30.037Z,5.10
2019-03-05T23:54:09.573Z,5.10
2019-03-05T23:56:41.083Z,5.10
2019-03-05T23:59:10.333Z,5.10
